Time;durP1;ratioP1;P1;durP2;ratioP2;P2;SDS_P1;SDS_P2;PMS_P1;PMS_P2;Temp;Humidity;BMP_temperature;BMP_pressure;BME280_temperature;BME280_humidity;BME280_pressure;Samples;Min_cycle;Max_cycle;Signal;HPM_P1;HPM_P2
2024/01/05 00:02:09;;;;;;;11.97;5.50;;;2.10;99.90;;;;;;4988413;28;20771;-61
2024/01/05 00:04:35;;;;;;;12.10;5.20;;;2.10;99.90;;;;;;4989720;28;20219;-59
2024/01/05 00:07:01;;;;;;;9.40;5.10;;;2.10;99.90;;;;;;4987365;28;20282;-59
2024/01/05 00:09:26;;;;;;;8.23;4.97;;;2.10;99.90;;;;;;4988336;28;20208;-63
2024/01/05 00:11:52;;;;;;;10.17;5.23;;;2.10;99.90;;;;;;4989974;28;20228;-60
2024/01/05 00:14:18;;;;;;;12.40;5.07;;;2.10;99.90;;;;;;4984381;28;20216;-58
2024/01/05 00:16:43;;;;;;;13.27;5.20;;;2.00;99.90;;;;;;4989345;28;20181;-59
2024/01/05 00:19:10;;;;;;;16.80;7.00;;;2.00;99.90;;;;;;4983754;28;20181;-59
2024/01/05 00:21:35;;;;;;;13.20;6.17;;;2.00;99.90;;;;;;4989635;28;20260;-61
2024/01/05 00:24:01;;;;;;;12.97;5.90;;;2.00;99.90;;;;;;4981568;28;20561;-60
2024/01/05 00:26:26;;;;;;;8.40;5.03;;;2.00;99.90;;;;;;4988305;28;20177;-62
2024/01/05 00:28:53;;;;;;;14.13;5.23;;;2.00;99.90;;;;;;4986950;28;20177;-59
2024/01/05 00:31:19;;;;;;;9.57;5.97;;;2.00;99.90;;;;;;4989655;28;20918;-59
2024/01/05 00:33:45;;;;;;;14.90;6.10;;;2.00;99.90;;;;;;4984727;28;20511;-61
2024/01/05 00:36:11;;;;;;;15.17;7.00;;;2.00;99.90;;;;;;4989431;28;20418;-59
2024/01/05 00:38:37;;;;;;;21.27;7.80;;;2.00;99.90;;;;;;4988294;28;20440;-62
2024/01/05 00:41:04;;;;;;;24.03;8.63;;;2.00;99.90;;;;;;4985271;28;20501;-59
2024/01/05 00:43:30;;;;;;;23.87;8.40;;;2.00;99.90;;;;;;4981764;28;21065;-58
2024/01/05 00:45:56;;;;;;;24.00;7.70;;;2.00;99.90;;;;;;4988590;28;20424;-59
2024/01/05 00:48:21;;;;;;;23.60;8.33;;;2.10;99.90;;;;;;4984169;28;20586;-60
2024/01/05 00:50:47;;;;;;;36.03;9.90;;;2.10;99.90;;;;;;4984904;28;20239;-58
2024/01/05 00:53:13;;;;;;;55.40;9.20;;;2.10;99.90;;;;;;4985383;28;20199;-61
2024/01/05 00:55:39;;;;;;;39.90;8.73;;;2.10;99.90;;;;;;4985200;28;21284;-61
2024/01/05 00:58:05;;;;;;;28.83;8.40;;;2.10;99.90;;;;;;4983899;28;20755;-61
2024/01/05 01:00:30;;;;;;;18.17;7.60;;;2.10;99.90;;;;;;4987317;28;20254;-58
2024/01/05 01:02:56;;;;;;;61.10;9.53;;;2.20;99.90;;;;;;4987821;28;20217;-60
2024/01/05 01:05:22;;;;;;;60.93;9.80;;;2.20;99.90;;;;;;4982579;28;20259;-59
2024/01/05 01:07:48;;;;;;;26.30;8.27;;;2.10;99.90;;;;;;4983534;28;20546;-61
2024/01/05 01:10:14;;;;;;;67.70;9.87;;;2.10;99.90;;;;;;4981699;28;20821;-62
2024/01/05 01:12:39;;;;;;;52.50;8.33;;;2.10;99.90;;;;;;4983325;28;20177;-60
2024/01/05 01:15:06;;;;;;;42.87;9.30;;;2.10;99.90;;;;;;4979893;28;20221;-63
2024/01/05 01:17:32;;;;;;;36.67;7.90;;;2.10;99.90;;;;;;4981637;28;20203;-60
2024/01/05 01:19:57;;;;;;;37.37;8.40;;;2.00;99.90;;;;;;4985034;28;20911;-62
2024/01/05 01:22:23;;;;;;;16.83;6.67;;;2.00;99.90;;;;;;4980750;28;20174;-60
2024/01/05 01:24:49;;;;;;;28.50;8.10;;;2.00;99.90;;;;;;4980271;28;20715;-59
2024/01/05 01:27:16;;;;;;;17.23;8.50;;;2.00;99.90;;;;;;4981388;28;20200;-60
2024/01/05 01:29:41;;;;;;;22.13;8.27;;;2.00;99.90;;;;;;4981111;28;20247;-61
2024/01/05 01:32:09;;;;;;;18.17;7.40;;;2.00;99.90;;;;;;4980811;28;20436;-59
2024/01/05 01:34:35;;;;;;;18.80;8.90;;;1.90;99.90;;;;;;4981151;28;20490;-62
2024/01/05 01:37:00;;;;;;;20.00;7.77;;;1.90;99.90;;;;;;4980581;28;20436;-63
2024/01/05 01:39:26;;;;;;;20.90;8.20;;;1.90;99.90;;;;;;4982886;28;20443;-61
2024/01/05 01:41:52;;;;;;;20.17;7.37;;;1.90;99.90;;;;;;4981407;28;20551;-61
2024/01/05 01:44:17;;;;;;;20.03;8.43;;;1.90;99.90;;;;;;4984951;28;20193;-59
2024/01/05 01:46:43;;;;;;;20.63;6.60;;;1.90;99.90;;;;;;4980011;28;20209;-58
2024/01/05 01:49:09;;;;;;;21.70;7.63;;;1.90;99.90;;;;;;4980852;28;20554;-60
2024/01/05 01:51:35;;;;;;;19.30;8.03;;;1.90;99.90;;;;;;4982570;28;20452;-62
2024/01/05 01:54:04;;;;;;;23.53;7.50;;;1.90;99.90;;;;;;4978850;28;20215;-63
2024/01/05 01:56:31;;;;;;;22.03;7.23;;;1.90;99.90;;;;;;4979367;28;20450;-58
2024/01/05 01:58:57;;;;;;;16.70;6.50;;;1.90;99.90;;;;;;4979037;28;20434;-61
2024/01/05 02:01:22;;;;;;;13.87;7.13;;;2.00;99.90;;;;;;4980793;28;20409;-59
2024/01/05 02:03:49;;;;;;;12.43;7.60;;;2.00;99.90;;;;;;4979887;28;20824;-62
2024/01/05 02:06:14;;;;;;;14.07;7.70;;;2.00;99.90;;;;;;4981290;28;20215;-60
2024/01/05 02:08:40;;;;;;;21.10;7.67;;;2.00;99.90;;;;;;4983394;28;20467;-57
2024/01/05 02:11:06;;;;;;;12.80;7.63;;;2.00;99.90;;;;;;4983030;28;20209;-56
2024/01/05 02:13:33;;;;;;;11.87;7.30;;;2.00;99.90;;;;;;4981918;28;20559;-57
2024/01/05 02:15:59;;;;;;;16.83;7.00;;;2.00;99.90;;;;;;4975654;28;20201;-57
2024/01/05 02:18:24;;;;;;;21.50;8.83;;;2.00;99.90;;;;;;4987329;28;20420;-59
2024/01/05 02:20:50;;;;;;;18.80;8.50;;;2.00;99.90;;;;;;4984632;28;20204;-62
2024/01/05 02:23:24;;;;;;;16.67;7.60;;;2.00;99.90;;;;;;4986744;28;20179;-60
2024/01/05 02:25:51;;;;;;;14.03;8.20;;;2.00;99.90;;;;;;4980364;28;20261;-60
2024/01/05 02:28:20;;;;;;;18.27;8.23;;;2.00;99.90;;;;;;4985923;28;20435;-59
2024/01/05 02:30:46;;;;;;;22.03;8.80;;;2.00;99.90;;;;;;4985484;28;20957;-61
2024/01/05 02:33:11;;;;;;;15.93;8.13;;;2.00;99.90;;;;;;4980147;28;20426;-59
2024/01/05 02:35:37;;;;;;;20.50;9.67;;;2.00;99.90;;;;;;4981806;28;20533;-60
2024/01/05 02:38:03;;;;;;;20.53;8.40;;;2.00;99.90;;;;;;4983582;28;20679;-59
2024/01/05 02:40:29;;;;;;;34.83;9.80;;;2.00;99.90;;;;;;4985883;28;20193;-59
2024/01/05 02:42:54;;;;;;;46.30;10.37;;;2.00;99.90;;;;;;4985880;28;20707;-58
2024/01/05 02:45:21;;;;;;;43.47;9.37;;;2.00;99.90;;;;;;4981914;28;20227;-63
2024/01/05 02:47:55;;;;;;;16.50;9.40;;;1.90;99.90;;;;;;4984974;28;20184;-58
2024/01/05 02:50:21;;;;;;;21.37;9.90;;;1.90;99.90;;;;;;4985472;28;20439;-59
2024/01/05 02:52:47;;;;;;;18.63;7.97;;;1.90;99.90;;;;;;4986540;28;20424;-58
2024/01/05 02:55:13;;;;;;;17.93;9.17;;;1.90;99.90;;;;;;4982252;28;20208;-59
2024/01/05 02:57:39;;;;;;;23.63;8.50;;;1.90;99.90;;;;;;4978702;28;20439;-60
2024/01/05 03:00:06;;;;;;;26.63;7.20;;;1.90;99.90;;;;;;4980054;28;20443;-59
2024/01/05 03:02:32;;;;;;;14.70;8.47;;;1.90;99.90;;;;;;4985023;28;20427;-57
2024/01/05 03:04:58;;;;;;;23.30;9.90;;;1.90;99.90;;;;;;4979540;28;20519;-58
2024/01/05 03:07:24;;;;;;;14.40;7.80;;;1.90;99.90;;;;;;4984052;28;20557;-58
2024/01/05 03:09:50;;;;;;;10.80;6.87;;;1.90;99.90;;;;;;4985790;28;20424;-59
2024/01/05 03:12:17;;;;;;;16.77;7.87;;;1.90;99.90;;;;;;4983656;28;20510;-59
2024/01/05 03:14:43;;;;;;;13.00;7.27;;;1.90;99.90;;;;;;4981368;28;20947;-62
2024/01/05 03:17:08;;;;;;;13.97;7.83;;;1.90;99.90;;;;;;4985144;28;20423;-58
2024/01/05 03:19:34;;;;;;;15.10;7.67;;;1.90;99.90;;;;;;4984830;28;20176;-59
2024/01/05 03:22:00;;;;;;;17.23;7.97;;;1.90;99.90;;;;;;4981186;28;20685;-59
2024/01/05 03:24:25;;;;;;;13.93;8.40;;;1.90;99.90;;;;;;4985639;28;20200;-60
2024/01/05 03:26:51;;;;;;;16.90;8.17;;;1.90;99.90;;;;;;4986091;28;20556;-58
2024/01/05 03:29:16;;;;;;;14.27;7.80;;;1.90;99.90;;;;;;4985120;28;20707;-58
2024/01/05 03:31:46;;;;;;;14.07;6.87;;;1.90;99.90;;;;;;4988093;28;20263;-60
2024/01/05 03:34:13;;;;;;;12.73;7.50;;;1.90;99.90;;;;;;4988440;28;20679;-58
2024/01/05 03:36:39;;;;;;;13.73;7.40;;;2.00;99.90;;;;;;4990023;28;20417;-57
2024/01/05 03:39:06;;;;;;;11.00;6.93;;;2.00;99.90;;;;;;4985945;28;20456;-57
2024/01/05 03:41:32;;;;;;;10.87;6.90;;;2.00;99.90;;;;;;4987942;28;20247;-58
2024/01/05 03:43:58;;;;;;;8.70;6.27;;;2.00;99.90;;;;;;4984780;28;20485;-60
2024/01/05 03:46:24;;;;;;;12.73;6.47;;;1.90;99.90;;;;;;4989312;28;20417;-60
2024/01/05 03:48:49;;;;;;;15.43;7.83;;;2.00;99.90;;;;;;4983739;28;20416;-59
2024/01/05 03:51:15;;;;;;;11.10;6.73;;;2.00;99.90;;;;;;4990174;28;20827;-64
2024/01/05 03:53:41;;;;;;;11.63;7.53;;;2.00;99.90;;;;;;4983963;28;20265;-57
2024/01/05 03:56:08;;;;;;;10.83;7.10;;;2.00;99.90;;;;;;4989848;28;20200;-60
2024/01/05 03:58:34;;;;;;;17.00;7.80;;;2.10;99.90;;;;;;4988057;28;20642;-58
2024/01/05 04:01:01;;;;;;;20.00;11.33;;;2.10;99.90;;;;;;4990445;28;20447;-60
2024/01/05 04:03:27;;;;;;;13.00;7.23;;;2.10;99.90;;;;;;4982611;28;20431;-60
2024/01/05 04:05:53;;;;;;;13.43;7.20;;;2.10;99.90;;;;;;4981421;28;20455;-62
2024/01/05 04:08:18;;;;;;;15.83;8.73;;;2.10;99.90;;;;;;4993391;28;20181;-64
2024/01/05 04:10:44;;;;;;;14.40;7.87;;;2.20;99.90;;;;;;4998891;28;20502;-60
2024/01/05 04:13:09;;;;;;;14.43;7.97;;;2.10;99.90;;;;;;4998027;28;20311;-65
2024/01/05 04:15:36;;;;;;;12.97;7.20;;;2.10;99.90;;;;;;4996000;28;20217;-60
2024/01/05 04:18:02;;;;;;;14.40;8.43;;;2.10;99.90;;;;;;4992198;28;20236;-60
2024/01/05 04:20:27;;;;;;;12.93;7.40;;;2.00;99.90;;;;;;4991148;28;20435;-61
2024/01/05 04:22:53;;;;;;;13.37;7.67;;;2.10;99.90;;;;;;4989363;28;22000;-60
2024/01/05 04:25:19;;;;;;;13.10;8.17;;;2.00;99.90;;;;;;4985647;28;20192;-62
2024/01/05 04:27:45;;;;;;;17.53;7.07;;;2.00;99.90;;;;;;4987144;28;20676;-60
2024/01/05 04:30:11;;;;;;;12.93;6.90;;;2.00;99.90;;;;;;4990132;28;20175;-60
2024/01/05 04:32:37;;;;;;;15.60;7.47;;;2.00;99.90;;;;;;4986190;28;20962;-60
2024/01/05 04:35:03;;;;;;;14.53;7.60;;;2.00;99.90;;;;;;4989979;28;20470;-60
2024/01/05 04:37:28;;;;;;;12.93;7.97;;;2.00;99.90;;;;;;4981139;28;20201;-58
2024/01/05 04:39:54;;;;;;;15.77;8.30;;;2.10;99.90;;;;;;4984013;28;21041;-58
2024/01/05 04:42:20;;;;;;;14.10;7.40;;;2.10;99.90;;;;;;4987164;28;20268;-59
2024/01/05 04:44:45;;;;;;;13.30;6.57;;;2.10;99.90;;;;;;4988056;28;20201;-61
2024/01/05 04:47:11;;;;;;;18.13;8.80;;;2.10;99.90;;;;;;4988338;28;20177;-58
2024/01/05 04:49:36;;;;;;;13.57;7.20;;;2.10;99.90;;;;;;4987300;28;20181;-58
2024/01/05 04:52:02;;;;;;;7.97;5.00;;;2.10;99.90;;;;;;4986329;28;20180;-58
2024/01/05 04:54:28;;;;;;;5.23;3.57;;;2.10;99.90;;;;;;4985231;28;20290;-60
2024/01/05 04:56:53;;;;;;;7.80;3.30;;;2.20;99.90;;;;;;4974950;28;20302;-59
2024/01/05 04:59:22;;;;;;;6.07;2.80;;;2.30;99.90;;;;;;4979745;28;20600;-56
2024/01/05 05:01:48;;;;;;;12.23;4.83;;;2.30;99.90;;;;;;4977701;28;21219;-65
2024/01/05 05:04:14;;;;;;;12.40;5.43;;;2.40;99.90;;;;;;4983457;28;20591;-62
2024/01/05 05:06:40;;;;;;;10.83;5.60;;;2.40;99.90;;;;;;4972143;28;20185;-61
2024/01/05 05:09:05;;;;;;;9.40;6.20;;;2.40;99.90;;;;;;4980513;28;20526;-59
2024/01/05 05:11:31;;;;;;;8.23;5.20;;;2.30;99.90;;;;;;4984588;28;20570;-59
2024/01/05 05:13:57;;;;;;;11.23;6.97;;;2.30;99.90;;;;;;4983365;28;20215;-58
2024/01/05 05:16:22;;;;;;;10.00;5.90;;;2.30;99.90;;;;;;4985390;28;20177;-62
2024/01/05 05:18:49;;;;;;;15.60;5.70;;;2.30;99.90;;;;;;4983153;28;20189;-60
2024/01/05 05:21:15;;;;;;;10.87;5.80;;;2.30;99.90;;;;;;4979016;28;20343;-63
2024/01/05 05:23:41;;;;;;;12.03;6.43;;;2.30;99.90;;;;;;4985384;28;20486;-60
2024/01/05 05:26:07;;;;;;;15.10;6.87;;;2.30;99.90;;;;;;4974218;28;20436;-61
2024/01/05 05:28:32;;;;;;;8.80;6.10;;;2.30;99.90;;;;;;4983128;28;20188;-62
2024/01/05 05:30:58;;;;;;;11.50;7.00;;;2.30;99.90;;;;;;4974571;28;20173;-57
2024/01/05 05:33:24;;;;;;;12.07;4.43;;;2.30;99.90;;;;;;4986577;28;20219;-61
2024/01/05 05:35:49;;;;;;;8.93;3.40;;;2.20;99.90;;;;;;4973732;28;22097;-62
2024/01/05 05:38:15;;;;;;;7.70;3.37;;;2.30;99.90;;;;;;4983178;28;20177;-61
2024/01/05 05:40:40;;;;;;;8.97;5.17;;;2.40;99.90;;;;;;4984807;28;20849;-59
2024/01/05 05:43:06;;;;;;;9.50;6.00;;;2.50;99.90;;;;;;4979789;28;20642;-62
2024/01/05 05:45:32;;;;;;;9.30;5.70;;;2.50;99.90;;;;;;4981091;28;20209;-59
2024/01/05 05:47:58;;;;;;;10.80;6.20;;;2.40;99.90;;;;;;4980444;28;20173;-64
2024/01/05 05:50:23;;;;;;;13.97;6.50;;;2.40;99.90;;;;;;4984954;28;20180;-62
2024/01/05 05:52:51;;;;;;;13.77;6.77;;;2.30;99.90;;;;;;4979711;28;20740;-59
2024/01/05 05:55:19;;;;;;;11.23;6.53;;;2.30;99.90;;;;;;4986060;28;20211;-60
2024/01/05 05:57:45;;;;;;;10.90;5.97;;;2.30;99.90;;;;;;4985070;28;20414;-60
2024/01/05 06:00:11;;;;;;;10.70;6.37;;;2.30;99.90;;;;;;4982026;28;20516;-61
2024/01/05 06:02:38;;;;;;;10.30;6.40;;;2.20;99.90;;;;;;4985788;28;20180;-60
2024/01/05 06:05:05;;;;;;;9.20;6.23;;;2.30;99.90;;;;;;4988168;28;20440;-61
2024/01/05 06:07:30;;;;;;;7.13;3.80;;;2.20;99.90;;;;;;4985363;28;20424;-61
2024/01/05 06:09:56;;;;;;;7.83;3.50;;;2.30;99.90;;;;;;4986930;28;20433;-61
2024/01/05 06:12:22;;;;;;;10.57;4.00;;;2.30;99.90;;;;;;4986146;28;20724;-65
2024/01/05 06:14:48;;;;;;;10.00;3.93;;;2.40;99.90;;;;;;4984336;28;20545;-62
2024/01/05 06:17:13;;;;;;;4.00;3.07;;;2.40;99.90;;;;;;4980558;28;20256;-61
2024/01/05 06:19:39;;;;;;;6.40;3.47;;;2.50;99.90;;;;;;4984577;28;20640;-60
2024/01/05 06:22:04;;;;;;;4.80;2.90;;;2.50;99.90;;;;;;4986542;28;20247;-64
2024/01/05 06:24:30;;;;;;;8.80;2.77;;;2.60;99.90;;;;;;4993454;28;20262;-62
2024/01/05 06:26:56;;;;;;;3.70;2.43;;;2.70;99.90;;;;;;4997159;28;20186;-61
2024/01/05 06:29:22;;;;;;;10.83;4.70;;;2.80;99.90;;;;;;4993310;28;20802;-59
2024/01/05 06:31:47;;;;;;;6.00;3.20;;;2.90;99.90;;;;;;4985260;28;20659;-62
2024/01/05 06:34:13;;;;;;;3.50;2.63;;;3.00;99.90;;;;;;4986119;28;20579;-61
2024/01/05 06:36:38;;;;;;;4.10;2.20;;;3.10;99.90;;;;;;4985797;28;20177;-61
2024/01/05 06:39:04;;;;;;;2.13;1.93;;;3.10;99.90;;;;;;4985908;28;20199;-60
2024/01/05 06:41:30;;;;;;;5.20;2.40;;;3.10;99.90;;;;;;4985358;28;20216;-62
2024/01/05 06:43:55;;;;;;;7.03;4.93;;;3.20;99.90;;;;;;4987592;28;20255;-62
2024/01/05 06:46:21;;;;;;;10.20;4.77;;;3.20;99.90;;;;;;4986312;28;20267;-63
2024/01/05 06:48:47;;;;;;;12.00;5.40;;;3.10;99.90;;;;;;4984490;28;20181;-62
2024/01/05 06:51:12;;;;;;;6.57;4.80;;;3.00;99.90;;;;;;4985964;28;20183;-62
2024/01/05 06:53:38;;;;;;;6.60;4.63;;;3.00;99.90;;;;;;4980958;28;20274;-60
2024/01/05 06:56:05;;;;;;;8.40;4.73;;;2.90;99.90;;;;;;4982357;28;20208;-62
2024/01/05 06:58:31;;;;;;;7.63;4.83;;;2.90;99.90;;;;;;4982662;28;20188;-62
2024/01/05 07:00:57;;;;;;;11.23;5.00;;;2.80;99.90;;;;;;4980318;28;20436;-62
2024/01/05 07:03:23;;;;;;;7.80;4.70;;;2.80;99.90;;;;;;4980723;28;20519;-62
2024/01/05 07:05:48;;;;;;;7.70;5.17;;;2.80;99.90;;;;;;4982418;28;20211;-60
2024/01/05 07:08:14;;;;;;;13.87;6.57;;;2.70;99.90;;;;;;4983276;28;20180;-62
2024/01/05 07:10:40;;;;;;;17.13;6.47;;;2.70;99.90;;;;;;4981506;28;20288;-61
2024/01/05 07:13:08;;;;;;;10.27;5.23;;;2.70;99.90;;;;;;4981662;28;20192;-62
2024/01/05 07:15:34;;;;;;;7.93;3.70;;;2.70;99.90;;;;;;4979959;28;20679;-62
2024/01/05 07:18:00;;;;;;;9.90;4.20;;;2.70;99.90;;;;;;4982887;28;20416;-61
2024/01/05 07:20:25;;;;;;;11.33;3.97;;;2.80;99.90;;;;;;4981235;28;20185;-61
2024/01/05 07:22:51;;;;;;;6.33;3.47;;;2.80;99.90;;;;;;4983329;28;20731;-61
2024/01/05 07:25:17;;;;;;;7.63;3.20;;;2.80;99.90;;;;;;4982717;28;20200;-60
2024/01/05 07:27:42;;;;;;;3.53;2.67;;;2.80;99.90;;;;;;4981967;28;20181;-61
2024/01/05 07:30:08;;;;;;;5.47;3.33;;;2.90;99.90;;;;;;4981432;28;20181;-62
2024/01/05 07:32:34;;;;;;;7.97;3.20;;;2.90;99.90;;;;;;4983239;28;20183;-61
2024/01/05 07:35:00;;;;;;;5.00;2.80;;;2.90;99.90;;;;;;4982303;28;20979;-61
2024/01/05 07:37:25;;;;;;;5.03;3.00;;;2.90;99.90;;;;;;4974044;28;20185;-62
2024/01/05 07:39:51;;;;;;;7.97;3.43;;;2.90;99.90;;;;;;4979048;28;20536;-61
2024/01/05 07:42:16;;;;;;;10.90;6.00;;;3.00;99.90;;;;;;4982403;28;20183;-63
2024/01/05 07:44:42;;;;;;;12.30;5.63;;;3.00;99.90;;;;;;4981274;28;20216;-61
2024/01/05 07:47:09;;;;;;;10.40;5.47;;;2.90;99.90;;;;;;4981594;28;20185;-61
2024/01/05 07:49:35;;;;;;;14.20;6.40;;;2.90;99.90;;;;;;4982921;28;20224;-62
2024/01/05 07:52:00;;;;;;;13.97;6.17;;;2.80;99.90;;;;;;4982917;28;20821;-62
2024/01/05 07:54:26;;;;;;;15.87;7.17;;;2.80;99.90;;;;;;4979242;28;20212;-62
2024/01/05 07:56:52;;;;;;;8.77;6.33;;;2.70;99.90;;;;;;4974383;28;20183;-62
2024/01/05 07:59:17;;;;;;;13.40;6.20;;;2.80;99.90;;;;;;4980400;28;20182;-62
2024/01/05 08:01:43;;;;;;;12.60;7.23;;;2.80;99.90;;;;;;4981740;28;20174;-62
2024/01/05 08:04:09;;;;;;;12.93;6.93;;;2.80;99.90;;;;;;4975073;28;20193;-62
2024/01/05 08:06:34;;;;;;;11.00;6.73;;;2.70;99.90;;;;;;4981170;28;20236;-61
2024/01/05 08:09:00;;;;;;;13.57;7.60;;;2.70;99.90;;;;;;4986615;28;20170;-62
2024/01/05 08:11:26;;;;;;;11.60;7.30;;;2.70;99.90;;;;;;4978771;28;20454;-61
2024/01/05 08:13:52;;;;;;;11.77;6.73;;;2.70;99.90;;;;;;4981625;28;20204;-62
2024/01/05 08:16:17;;;;;;;15.80;8.07;;;2.80;99.90;;;;;;4979939;28;20428;-62
2024/01/05 08:18:43;;;;;;;13.80;7.07;;;2.80;99.90;;;;;;4986568;28;20192;-61
2024/01/05 08:21:09;;;;;;;15.93;7.40;;;2.80;99.90;;;;;;4985657;28;20169;-62
2024/01/05 08:23:35;;;;;;;13.77;7.10;;;2.90;99.90;;;;;;4987548;28;20421;-61
2024/01/05 08:26:03;;;;;;;11.73;7.07;;;2.90;99.90;;;;;;4979118;28;20177;-61
2024/01/05 08:28:30;;;;;;;11.73;6.83;;;3.00;99.90;;;;;;4984847;28;20439;-61
2024/01/05 08:30:56;;;;;;;13.00;8.87;;;3.10;99.90;;;;;;4985379;28;20436;-63
2024/01/05 08:33:22;;;;;;;11.67;6.83;;;3.10;99.90;;;;;;4984723;28;20446;-63
2024/01/05 08:35:48;;;;;;;11.90;9.00;;;3.10;99.90;;;;;;4988406;28;20478;-61
2024/01/05 08:38:14;;;;;;;11.67;7.60;;;3.10;99.90;;;;;;4987339;28;20171;-61
2024/01/05 08:40:40;;;;;;;13.20;6.97;;;3.20;99.90;;;;;;4990665;28;20306;-60
2024/01/05 08:43:06;;;;;;;17.97;8.23;;;3.20;99.90;;;;;;4986529;28;21029;-62
2024/01/05 08:45:33;;;;;;;16.27;7.67;;;3.20;99.90;;;;;;4986282;28;20447;-61
2024/01/05 08:47:59;;;;;;;10.73;6.80;;;3.20;99.90;;;;;;4986782;28;20177;-62
2024/01/05 08:50:25;;;;;;;12.90;7.03;;;3.20;99.90;;;;;;4986284;28;20930;-64
2024/01/05 08:52:51;;;;;;;11.80;7.13;;;3.20;99.90;;;;;;4987284;28;20436;-62
2024/01/05 08:55:19;;;;;;;22.33;10.57;;;3.20;99.90;;;;;;4984420;28;20220;-60
2024/01/05 08:57:47;;;;;;;14.70;8.70;;;3.20;99.90;;;;;;4982888;28;20185;-62
2024/01/05 09:00:12;;;;;;;15.77;8.60;;;3.20;99.90;;;;;;4982691;28;20420;-62
2024/01/05 09:02:38;;;;;;;14.90;8.93;;;3.20;99.90;;;;;;4987565;28;20981;-60
2024/01/05 09:05:04;;;;;;;23.90;12.27;;;3.30;99.90;;;;;;4984456;28;20280;-60
2024/01/05 09:07:33;;;;;;;21.70;12.47;;;3.30;99.90;;;;;;4986837;28;20428;-60
2024/01/05 09:09:59;;;;;;;21.80;10.03;;;3.40;99.90;;;;;;4989438;28;20427;-62
2024/01/05 09:12:25;;;;;;;16.50;9.63;;;3.40;99.90;;;;;;4981113;28;20948;-62
2024/01/05 09:14:51;;;;;;;17.27;9.67;;;3.50;99.90;;;;;;4989291;28;20602;-62
2024/01/05 09:17:17;;;;;;;16.63;9.67;;;3.50;99.90;;;;;;4985967;28;20192;-61
2024/01/05 09:19:43;;;;;;;29.67;11.30;;;3.50;99.90;;;;;;4989199;28;21327;-61
2024/01/05 09:22:08;;;;;;;24.97;13.97;;;3.50;99.90;;;;;;4989973;28;20173;-61
2024/01/05 09:24:35;;;;;;;23.30;14.50;;;3.60;99.90;;;;;;4988480;28;20452;-62
2024/01/05 09:27:02;;;;;;;25.40;14.83;;;3.50;99.90;;;;;;4983140;28;20596;-61
2024/01/05 09:29:29;;;;;;;27.30;13.63;;;3.40;99.90;;;;;;4984213;28;20510;-62
2024/01/05 09:31:55;;;;;;;27.23;14.30;;;3.40;99.90;;;;;;4989258;28;20415;-61
2024/01/05 09:34:20;;;;;;;24.17;13.50;;;3.40;99.90;;;;;;4987485;28;20496;-60
2024/01/05 09:36:46;;;;;;;23.50;14.20;;;3.40;99.90;;;;;;4985721;28;20664;-61
2024/01/05 09:39:12;;;;;;;22.37;13.70;;;3.40;99.90;;;;;;4985510;28;20180;-62
2024/01/05 09:41:41;;;;;;;28.40;16.17;;;3.30;99.90;;;;;;4984735;28;20196;-55
2024/01/05 09:44:07;;;;;;;30.00;17.33;;;3.30;99.90;;;;;;4983987;28;20459;-58
2024/01/05 09:46:33;;;;;;;31.30;18.00;;;3.30;99.90;;;;;;4979901;28;20446;-57
2024/01/05 09:49:01;;;;;;;29.73;17.70;;;3.30;99.90;;;;;;4984443;28;20416;-56
2024/01/05 09:51:30;;;;;;;39.90;20.60;;;3.20;99.90;;;;;;4981639;28;20488;-57
2024/01/05 09:53:55;;;;;;;40.43;21.23;;;3.20;99.90;;;;;;4988465;28;20448;-57
2024/01/05 09:56:22;;;;;;;31.00;18.00;;;3.20;99.90;;;;;;4982030;28;20436;-58
2024/01/05 09:58:50;;;;;;;32.13;17.80;;;3.20;99.90;;;;;;4985477;28;20269;-58
2024/01/05 10:01:24;;;;;;;29.07;17.50;;;3.20;99.90;;;;;;4986359;28;21061;-57
2024/01/05 10:03:54;;;;;;;29.50;17.47;;;3.20;99.90;;;;;;4983035;28;22386;-58
2024/01/05 10:06:20;;;;;;;30.97;16.80;;;3.20;99.90;;;;;;4984512;28;20427;-57
2024/01/05 10:08:46;;;;;;;30.70;16.70;;;3.30;99.90;;;;;;4987021;28;20423;-58
2024/01/05 10:11:12;;;;;;;25.80;15.30;;;3.30;99.90;;;;;;4979491;28;20263;-56
2024/01/05 10:13:52;;;;;;;32.27;18.13;;;3.40;99.90;;;;;;4978746;28;20283;-57
2024/01/05 10:16:20;;;;;;;39.20;17.50;;;3.40;99.90;;;;;;4978943;28;20493;-57
2024/01/05 10:18:46;;;;;;;36.57;19.43;;;3.50;99.90;;;;;;4983561;28;20452;-57
2024/01/05 10:21:11;;;;;;;29.37;17.17;;;3.50;99.90;;;;;;4979484;28;21005;-57
2024/01/05 10:23:43;;;;;;;32.03;18.13;;;3.50;99.90;;;;;;4981795;28;20187;-58
2024/01/05 10:26:17;;;;;;;35.53;19.30;;;3.50;99.90;;;;;;4983790;28;20185;-57
2024/01/05 10:28:42;;;;;;;25.77;16.57;;;3.60;99.90;;;;;;4982771;28;20459;-58
2024/01/05 10:31:16;;;;;;;28.80;14.93;;;3.60;99.90;;;;;;4980879;28;20842;-58
2024/01/05 10:33:51;;;;;;;27.67;15.90;;;3.60;99.90;;;;;;4982046;28;20241;-58
2024/01/05 10:36:21;;;;;;;21.83;13.70;;;3.60;99.90;;;;;;4978389;28;20459;-58
2024/01/05 10:38:50;;;;;;;23.00;14.23;;;3.60;99.90;;;;;;4982526;28;20435;-57
2024/01/05 10:41:17;;;;;;;24.23;14.20;;;3.60;99.90;;;;;;4981403;28;20952;-55
2024/01/05 10:43:43;;;;;;;23.13;14.30;;;3.60;99.90;;;;;;4982126;28;20474;-57
2024/01/05 10:46:14;;;;;;;20.73;12.27;;;3.60;99.90;;;;;;4986810;28;20974;-58
2024/01/05 10:48:40;;;;;;;25.07;12.50;;;3.60;99.90;;;;;;4985069;28;20467;-59
2024/01/05 10:51:06;;;;;;;25.70;14.40;;;3.60;99.90;;;;;;4987641;28;20463;-57
2024/01/05 10:53:35;;;;;;;23.17;13.70;;;3.60;99.90;;;;;;4974073;28;20424;-57
2024/01/05 10:56:01;;;;;;;20.37;13.63;;;3.70;99.90;;;;;;4982291;28;20456;-58
2024/01/05 10:58:28;;;;;;;15.77;11.10;;;3.70;99.90;;;;;;4980142;28;20432;-58
2024/01/05 11:00:55;;;;;;;21.30;11.60;;;3.80;99.90;;;;;;4987905;28;21072;-58
2024/01/05 11:03:23;;;;;;;20.33;11.47;;;3.80;99.90;;;;;;4983036;28;20497;-57
2024/01/05 11:05:49;;;;;;;17.07;11.27;;;3.80;99.90;;;;;;4981829;28;20472;-59
2024/01/05 11:08:38;;;;;;;18.60;10.90;;;3.80;99.90;;;;;;4979462;28;20444;-60
2024/01/05 11:11:34;;;;;;;20.00;12.03;;;3.90;99.90;;;;;;4979688;28;20754;-59
2024/01/05 11:14:30;;;;;;;17.93;10.37;;;3.90;99.90;;;;;;4985647;28;20962;-60
2024/01/05 11:17:12;;;;;;;17.27;10.17;;;4.00;99.90;;;;;;4981147;28;20436;-59
2024/01/05 11:20:15;;;;;;;22.57;12.00;;;4.10;99.90;;;;;;4983647;28;20428;-60
2024/01/05 11:22:46;;;;;;;21.87;11.97;;;4.10;99.90;;;;;;4978598;28;20440;-59
2024/01/05 11:25:13;;;;;;;18.23;9.97;;;4.20;99.90;;;;;;4979270;28;20440;-59
2024/01/05 11:27:48;;;;;;;18.40;10.60;;;4.30;99.90;;;;;;4977498;28;20845;-58
2024/01/05 11:30:14;;;;;;;24.63;11.83;;;4.30;99.90;;;;;;4980022;28;20431;-59
2024/01/05 11:32:47;;;;;;;24.37;13.20;;;4.30;99.90;;;;;;4972786;28;20447;-59
2024/01/05 11:35:19;;;;;;;21.10;11.17;;;4.30;99.90;;;;;;4974171;28;20528;-59
2024/01/05 11:37:46;;;;;;;32.37;11.40;;;4.40;99.90;;;;;;4980800;28;20420;-60
2024/01/05 11:40:32;;;;;;;21.53;10.87;;;4.40;99.90;;;;;;4982517;28;20416;-59
2024/01/05 11:43:19;;;;;;;18.20;11.17;;;4.40;99.90;;;;;;4982908;28;20471;-60
2024/01/05 11:45:44;;;;;;;24.50;11.17;;;4.40;99.90;;;;;;4972798;28;20464;-60
2024/01/05 11:48:30;;;;;;;15.90;10.10;;;4.40;99.90;;;;;;4984192;28;20424;-60
2024/01/05 11:50:57;;;;;;;21.27;12.33;;;4.40;99.90;;;;;;4977879;28;20473;-61
2024/01/05 11:53:24;;;;;;;31.83;11.50;;;4.40;99.90;;;;;;4982097;28;20550;-59
2024/01/05 11:55:51;;;;;;;21.07;12.20;;;4.40;99.90;;;;;;4981652;28;20474;-60
2024/01/05 11:58:22;;;;;;;20.40;12.50;;;4.50;99.90;;;;;;4982739;28;20531;-60
2024/01/05 12:00:49;;;;;;;24.93;12.50;;;4.50;99.90;;;;;;4986997;28;20472;-60
2024/01/05 12:03:15;;;;;;;29.43;14.50;;;4.50;99.90;;;;;;4982012;28;20432;-61
2024/01/05 12:05:42;;;;;;;22.23;13.80;;;4.60;99.90;;;;;;4989928;28;20442;-60
2024/01/05 12:08:11;;;;;;;31.03;15.60;;;4.60;99.90;;;;;;4988467;28;20436;-61
2024/01/05 12:10:39;;;;;;;25.43;15.00;;;4.60;99.90;;;;;;4987383;28;20902;-59
2024/01/05 12:13:06;;;;;;;25.73;14.77;;;4.70;99.90;;;;;;4986068;28;20954;-61
2024/01/05 12:15:32;;;;;;;25.30;14.57;;;4.70;99.90;;;;;;4985364;28;20538;-60
2024/01/05 12:18:08;;;;;;;27.50;16.07;;;4.70;99.90;;;;;;4984288;28;20475;-60
2024/01/05 12:20:34;;;;;;;25.03;15.00;;;4.80;99.90;;;;;;4980524;28;20448;-62
2024/01/05 12:23:01;;;;;;;28.27;17.20;;;4.80;99.90;;;;;;4987513;28;20493;-60
2024/01/05 12:25:27;;;;;;;27.30;16.10;;;4.80;99.90;;;;;;4983968;28;20439;-59
2024/01/05 12:27:53;;;;;;;27.07;15.70;;;4.90;99.90;;;;;;4979699;28;21301;-60
2024/01/05 12:30:19;;;;;;;29.00;15.60;;;4.90;99.90;;;;;;4982041;28;20435;-60
2024/01/05 12:32:47;;;;;;;30.17;15.83;;;5.00;99.90;;;;;;4983192;28;20476;-61
2024/01/05 12:35:13;;;;;;;28.20;16.30;;;5.00;99.90;;;;;;4988392;28;20838;-60
2024/01/05 12:37:51;;;;;;;29.13;17.37;;;5.00;99.90;;;;;;4986875;28;20459;-62
2024/01/05 12:40:23;;;;;;;27.87;16.00;;;5.10;99.90;;;;;;4984239;28;20857;-61
2024/01/05 12:42:49;;;;;;;30.30;14.80;;;5.10;99.90;;;;;;4988113;28;20483;-60
2024/01/05 12:45:16;;;;;;;28.77;15.17;;;5.00;99.90;;;;;;4988730;28;20515;-61